Gulf Islands Natl Seashore, Florida
Current Conditions -  °F | °C
As of 3:56 PM on Sunday 23 Nov 2014 (Local Time) from KNPA Reporting Station
Scattered Clouds Scattered Clouds  
Wind Chill: 68°   Ceiling: Unl
Heat Index: 68°   Visibility: 8mi
Dew Point: 63°   Wind: 10mph
Humidity: 84%   Direction: 220°SW
Pressure: 29.72"   Gusts: NA
Location:  30.33°N, 87.25°W
Report Text: KNPA 232156Z 22009KT 8SM FEW020 SCT110 20/17 A2972 RMK AO2 SLP066 T02000172
Loading
Personal Weather Stations






























Interactive Weather Map New forecast layout! Learn more

10-Day Weather Forecast

Advertisements
Track Severe Weather on mobile